Lake Louise, Canada
Current Conditions -  °F | °C
As of 6:00 PM on Wednesday 22 Oct 2014 (Local Time) from CYGE Reporting Station
Light Rain Light Rain  
Wind Chill: 50°   Ceiling: 4000
Heat Index: 50°   Visibility: 20mi
Dew Point: 41°   Wind: 12mph
Humidity: 71%   Direction: 130°SE
Pressure: 29.74"   Gusts: 22mph
Location:  51.43°N, 116.18°W
Report Text: CYGE 230000Z 13010G19KT 20SM -RA BKN040 BKN060 OVC080 10/05 A2974 RMK SC5SC2AS1 VIS E LWR LAST OBS/NEXT 231200Z SLP083 DENSITY ALT 2800FT
Loading
Personal Weather Stations






























Interactive Weather Map
Tropical Storm Tracking
New forecast layout! Learn more

10-Day Weather Forecast

Advertisements
Track Severe Weather on mobile